NCAR-RAP Real-Time Weather Data

Output produced by METARs form (06 May 2021  16:12 UTC)
found at http://weather.rap.ucar.edu/surface/
 
KLCH 061553Z AUTO 05009KT 26/12 A3017 RMK AO2 SLP225 T02610117 PWINO RVRNO $
KLCH 061453Z AUTO 06010KT 10SM CLR 23/13 A3017 RMK AO2 SLP225 T02330133 51007
KLCH 061353Z AUTO 04014KT 10SM CLR 21/14 A3017 RMK AO2 SLP223 T02110139
KLCH 061253Z AUTO 04008KT 10SM CLR 19/16 A3016 RMK AO2 SLP221 T01890156
KLCH 061153Z AUTO 02006KT 10SM CLR 17/15 A3015 RMK AO2 SLP218 T01670150 10183 20161 53015
KLCH 061053Z AUTO 01005KT 10SM CLR 17/15 A3013 RMK AO2 SLP211 T01670150
KLCH 060953Z AUTO 02006KT 10SM CLR 17/15 A3012 RMK AO2 SLP208 T01720150
KLCH 060853Z AUTO 05005KT 10SM CLR 17/15 A3011 RMK AO2 SLP203 T01670150 52003
KLCH 060753Z AUTO 04005KT 10SM CLR 17/15 A3011 RMK AO2 SLP202 T01670150
KLCH 060653Z AUTO 05004KT 10SM CLR 17/16 A3010 RMK AO2 SLP201 T01720156
KLCH 060553Z AUTO 05003KT 10SM CLR 18/16 A3010 RMK AO2 SLP200 T01830161 10256 20183 402780172 51004
KLCH 060453Z AUTO 05003KT 10SM CLR 18/16 A3010 RMK AO2 SLP200 T01830161
KLCH 060353Z AUTO 06004KT 10SM CLR 19/16 A3010 RMK AO2 SLP199 T01890161
KLCH 060253Z AUTO 06004KT 10SM CLR 20/17 A3009 RMK AO2 SLP196 T02000167 52015
KLCH 060153Z AUTO 09005KT 10SM CLR 21/16 A3007 RMK AO2 SLP191 T02110161